Time;durP1;ratioP1;P1;durP2;ratioP2;P2;SDS_P1;SDS_P2;PMS_P1;PMS_P2;Temp;Humidity;BMP_temperature;BMP_pressure;BME280_temperature;BME280_humidity;BME280_pressure;Samples;Min_cycle;Max_cycle;Signal;HPM_P1;HPM_P2
2022/06/02 00:00:49;;;;;;;1.13;0.40;;;8.10;99.90;;;;;;5063923;28;20037;-75
2022/06/02 00:03:39;;;;;;;1.55;0.55;;;8.00;99.90;;;;;;5062572;28;20025;-75
2022/06/02 00:06:32;;;;;;;0.38;0.30;;;8.00;99.90;;;;;;5060503;28;20074;-75
2022/06/02 00:09:07;;;;;;;1.23;0.77;;;8.00;99.90;;;;;;5063188;28;20102;-75
2022/06/02 00:12:10;;;;;;;0.70;0.30;;;7.90;99.90;;;;;;5061410;28;20029;-75
2022/06/02 00:14:50;;;;;;;0.82;0.50;;;7.90;99.90;;;;;;5059914;28;20597;-75
2022/06/02 00:17:16;;;;;;;0.90;0.40;;;7.90;99.90;;;;;;5063562;28;20028;-75
2022/06/02 00:20:18;;;;;;;0.60;0.30;;;7.90;99.90;;;;;;5061804;28;20025;-75
2022/06/02 00:22:47;;;;;;;0.90;0.30;;;7.80;99.90;;;;;;5058503;28;20060;-75
2022/06/02 00:25:46;;;;;;;0.90;0.30;;;7.80;99.90;;;;;;5063286;28;20059;-75
2022/06/02 00:28:22;;;;;;;0.95;0.50;;;7.90;99.90;;;;;;5060104;28;20028;-76
2022/06/02 00:31:02;;;;;;;0.95;0.30;;;7.90;99.90;;;;;;5062556;28;20021;-76
2022/06/02 00:33:31;;;;;;;0.98;0.50;;;7.80;99.90;;;;;;5061730;28;20048;-76
2022/06/02 00:36:00;;;;;;;0.60;0.30;;;7.70;99.90;;;;;;5061251;28;20104;-76
2022/06/02 00:38:30;;;;;;;0.38;0.28;;;7.80;99.90;;;;;;5063174;28;20032;-76
2022/06/02 00:41:24;;;;;;;1.17;0.75;;;7.80;99.90;;;;;;5059452;28;20047;-76
2022/06/02 00:44:01;;;;;;;1.30;0.50;;;7.80;99.90;;;;;;5061866;28;20039;-76
2022/06/02 00:46:40;;;;;;;0.93;0.40;;;7.80;99.90;;;;;;5063260;28;20025;-76
2022/06/02 00:49:27;;;;;;;1.58;0.43;;;7.70;99.90;;;;;;5059602;28;20400;-76
2022/06/02 00:52:11;;;;;;;1.00;0.30;;;7.70;99.90;;;;;;5062827;28;20025;-77
2022/06/02 00:57:32;;;;;;;0.77;0.30;;;7.70;99.90;;;;;;5060994;28;20120;-76
2022/06/02 01:00:18;;;;;;;0.93;0.30;;;7.70;99.90;;;;;;5061341;28;20388;-76
2022/06/02 01:02:53;;;;;;;0.38;0.22;;;7.70;99.90;;;;;;5061689;28;20021;-76
2022/06/02 01:05:43;;;;;;;1.45;0.40;;;7.70;99.90;;;;;;5061558;28;20051;-76
2022/06/02 01:08:35;;;;;;;1.45;0.73;;;7.70;99.90;;;;;;5062707;28;20021;-76
2022/06/02 01:11:19;;;;;;;0.52;0.30;;;7.70;99.90;;;;;;5056265;28;20400;-76
2022/06/02 01:14:25;;;;;;;2.30;0.52;;;7.70;99.90;;;;;;5061802;28;20013;-76
2022/06/02 01:17:15;;;;;;;1.63;0.40;;;7.70;99.90;;;;;;5062670;28;20029;-76
2022/06/02 01:20:02;;;;;;;1.27;0.40;;;7.70;99.90;;;;;;5050125;28;20037;-76
2022/06/02 01:22:59;;;;;;;1.08;0.30;;;7.60;99.90;;;;;;5061241;28;20044;-76
2022/06/02 01:26:02;;;;;;;1.08;0.30;;;7.60;99.90;;;;;;5062564;28;20130;-76
2022/06/02 01:28:48;;;;;;;1.25;0.40;;;7.60;99.90;;;;;;5061571;28;20029;-76
2022/06/02 01:31:27;;;;;;;0.32;0.30;;;7.50;99.90;;;;;;5061127;28;20052;-77
2022/06/02 01:34:11;;;;;;;1.30;0.40;;;7.50;99.90;;;;;;5062568;28;20025;-76
2022/06/02 01:36:49;;;;;;;0.75;0.57;;;7.30;99.90;;;;;;5060818;28;20395;-77
2022/06/02 01:39:17;;;;;;;1.13;0.30;;;7.30;99.90;;;;;;5061867;28;20032;-76
2022/06/02 01:41:58;;;;;;;0.85;0.30;;;7.30;99.90;;;;;;5062120;28;20090;-75
2022/06/02 01:44:43;;;;;;;0.47;0.30;;;7.30;99.90;;;;;;5059148;28;20143;-76
2022/06/02 01:47:20;;;;;;;0.75;0.40;;;7.30;99.90;;;;;;5061180;28;20029;-76
2022/06/02 01:49:53;;;;;;;1.65;0.60;;;7.30;99.90;;;;;;5061052;28;20044;-76
2022/06/02 01:52:37;;;;;;;0.85;0.30;;;7.20;99.90;;;;;;5043523;28;20101;-76
2022/06/02 01:55:11;;;;;;;1.13;0.55;;;7.20;99.90;;;;;;5062293;28;20040;-76
2022/06/02 01:57:52;;;;;;;0.80;0.30;;;7.30;99.90;;;;;;5060284;28;20020;-76
2022/06/02 02:00:23;;;;;;;1.23;0.40;;;7.40;99.90;;;;;;5060566;28;20044;-76
2022/06/02 02:03:16;;;;;;;0.75;0.30;;;7.40;99.90;;;;;;5061467;28;20025;-76
2022/06/02 02:06:05;;;;;;;0.35;0.30;;;7.30;99.90;;;;;;5060496;28;20423;-76
2022/06/02 02:08:58;;;;;;;1.35;0.38;;;7.30;99.90;;;;;;5065037;28;20025;-76
2022/06/02 02:11:33;;;;;;;0.95;0.30;;;7.20;99.90;;;;;;5065308;28;20093;-76
2022/06/02 02:14:10;;;;;;;1.13;0.40;;;7.10;99.90;;;;;;5064706;28;20027;-76
2022/06/02 02:17:03;;;;;;;1.00;0.38;;;7.10;99.90;;;;;;5066001;28;20025;-75
2022/06/02 02:19:41;;;;;;;0.82;0.30;;;7.00;99.90;;;;;;5063895;28;20036;-76
2022/06/02 02:22:24;;;;;;;0.88;0.30;;;7.00;99.90;;;;;;5063648;28;20489;-76
2022/06/02 02:25:02;;;;;;;0.22;0.20;;;7.00;99.90;;;;;;5064209;28;20037;-76
2022/06/02 02:28:03;;;;;;;1.25;0.40;;;6.90;99.90;;;;;;5062281;28;20025;-76
2022/06/02 02:30:35;;;;;;;1.83;0.40;;;6.90;99.90;;;;;;5064020;28;20029;-76
2022/06/02 02:33:19;;;;;;;1.23;0.40;;;6.80;99.90;;;;;;5063685;28;20408;-76
2022/06/02 02:36:04;;;;;;;0.60;0.40;;;6.90;99.90;;;;;;5062168;28;20056;-76
2022/06/02 02:38:54;;;;;;;2.63;0.40;;;6.80;99.90;;;;;;5065335;28;20025;-77
2022/06/02 02:41:46;;;;;;;1.85;0.73;;;6.80;99.90;;;;;;5064365;28;20041;-76
2022/06/02 02:44:35;;;;;;;1.40;0.50;;;6.90;99.90;;;;;;5062240;28;20530;-76
2022/06/02 02:47:25;;;;;;;1.73;0.40;;;6.90;99.90;;;;;;5054804;28;20447;-75
2022/06/02 02:50:22;;;;;;;0.65;0.30;;;6.90;99.90;;;;;;5064066;28;20032;-76
2022/06/02 02:52:56;;;;;;;2.65;0.70;;;6.90;99.90;;;;;;5063338;28;20035;-76
2022/06/02 02:55:29;;;;;;;0.88;0.30;;;6.90;99.90;;;;;;5063625;28;20032;-76
2022/06/02 02:58:03;;;;;;;1.20;0.32;;;6.90;99.90;;;;;;5063282;28;20025;-76
2022/06/02 03:00:46;;;;;;;0.85;0.30;;;6.80;99.90;;;;;;5064667;28;20029;-76
2022/06/02 03:03:43;;;;;;;1.15;0.38;;;6.80;99.90;;;;;;5063308;28;20036;-76
2022/06/02 03:06:31;;;;;;;0.82;0.30;;;6.70;99.90;;;;;;5062778;28;20044;-76
2022/06/02 03:09:18;;;;;;;1.08;0.47;;;6.70;99.90;;;;;;5064351;28;20080;-76
2022/06/02 03:11:53;;;;;;;0.90;0.30;;;6.80;99.90;;;;;;5064337;28;20057;-76
2022/06/02 03:14:30;;;;;;;0.28;0.20;;;6.70;99.90;;;;;;5061388;28;20036;-76
2022/06/02 03:17:25;;;;;;;1.52;0.50;;;6.70;99.90;;;;;;5064685;28;20092;-76
2022/06/02 03:20:01;;;;;;;1.58;0.40;;;6.70;99.90;;;;;;5057657;28;20037;-76
2022/06/02 03:22:29;;;;;;;0.90;0.30;;;6.70;99.90;;;;;;5063333;28;20100;-76
2022/06/02 03:25:00;;;;;;;0.93;0.38;;;6.70;99.90;;;;;;5064483;28;20459;-76
2022/06/02 03:27:37;;;;;;;0.63;0.30;;;6.70;99.90;;;;;;5062511;28;20035;-76
2022/06/02 03:30:20;;;;;;;0.55;0.30;;;6.70;99.90;;;;;;5064513;28;20029;-77
2022/06/02 03:32:46;;;;;;;1.45;0.40;;;6.80;99.90;;;;;;5063440;28;20077;-76
2022/06/02 03:35:24;;;;;;;0.45;0.30;;;6.70;99.90;;;;;;5063298;28;20025;-76
2022/06/02 03:38:14;;;;;;;1.45;0.50;;;6.70;99.90;;;;;;5064499;28;20028;-76
2022/06/02 03:41:04;;;;;;;0.80;0.30;;;6.60;99.90;;;;;;5061806;28;20029;-76
2022/06/02 03:43:52;;;;;;;0.88;0.30;;;6.70;99.90;;;;;;5062255;28;20033;-76
2022/06/02 03:46:45;;;;;;;0.90;0.30;;;6.70;99.90;;;;;;5064150;28;20116;-76
2022/06/02 03:49:23;;;;;;;2.38;0.60;;;6.70;99.90;;;;;;5062063;28;20044;-76
2022/06/02 03:52:11;;;;;;;0.65;0.30;;;6.80;99.90;;;;;;5063913;28;20017;-77
2022/06/02 03:55:24;;;;;;;0.80;0.30;;;6.80;99.90;;;;;;5063633;28;20051;-76
2022/06/02 03:58:09;;;;;;;1.00;0.30;;;6.80;99.90;;;;;;5060163;28;20435;-76
2022/06/02 04:00:49;;;;;;;0.88;0.30;;;6.90;99.90;;;;;;5063558;28;20033;-76
2022/06/02 04:03:33;;;;;;;1.25;0.40;;;7.00;99.90;;;;;;5063628;28;20052;-77
2022/06/02 04:06:36;;;;;;;1.13;0.35;;;7.10;99.90;;;;;;5061668;28;20055;-76
2022/06/02 04:09:23;;;;;;;1.25;0.30;;;7.10;99.90;;;;;;5063039;28;20021;-76
2022/06/02 04:15:22;;;;;;;0.98;0.30;;;7.10;99.90;;;;;;5062017;28;20094;-76
2022/06/02 04:17:51;;;;;;;0.68;0.30;;;7.10;99.90;;;;;;5063283;28;20025;-76
2022/06/02 04:20:43;;;;;;;0.57;0.30;;;7.10;99.90;;;;;;5062903;28;20087;-75
2022/06/02 04:23:42;;;;;;;0.85;0.38;;;7.20;99.90;;;;;;5061511;28;20029;-76
2022/06/02 04:26:30;;;;;;;1.30;0.50;;;7.20;99.90;;;;;;5063436;28;20028;-76
2022/06/02 04:29:18;;;;;;;1.40;0.30;;;7.40;99.90;;;;;;5063214;28;20036;-75
2022/06/02 04:32:14;;;;;;;1.02;0.30;;;7.50;99.90;;;;;;5060958;28;20079;-76
2022/06/02 04:35:00;;;;;;;0.90;0.30;;;7.60;99.90;;;;;;5063064;28;20049;-76
2022/06/02 04:37:47;;;;;;;1.35;0.60;;;7.60;99.90;;;;;;5062997;28;20036;-76
2022/06/02 04:40:51;;;;;;;1.73;0.47;;;7.60;99.90;;;;;;5060651;28;20033;-76
2022/06/02 04:43:35;;;;;;;1.10;0.30;;;7.70;99.90;;;;;;5040592;28;20061;-77
2022/06/02 04:46:34;;;;;;;1.15;0.30;;;7.70;99.90;;;;;;5040409;28;20053;-76
2022/06/02 04:49:15;;;;;;;1.63;0.68;;;7.90;99.90;;;;;;5027574;28;20044;-76
2022/06/02 04:52:02;;;;;;;1.27;0.40;;;8.00;99.90;;;;;;5062927;28;20036;-76
2022/06/02 04:54:52;;;;;;;0.77;0.30;;;8.00;99.90;;;;;;5062364;28;20029;-76
2022/06/02 04:57:54;;;;;;;0.98;0.30;;;8.10;99.90;;;;;;5059622;28;20112;-75
2022/06/02 05:00:22;;;;;;;1.27;0.60;;;8.10;99.90;;;;;;5051008;28;20377;-76
2022/06/02 05:03:12;;;;;;;1.27;0.40;;;8.20;99.90;;;;;;5062050;28;20020;-76
2022/06/02 05:05:45;;;;;;;0.75;0.30;;;8.30;99.90;;;;;;5061024;28;20127;-76
2022/06/02 05:08:46;;;;;;;0.77;0.30;;;8.40;99.90;;;;;;5062660;28;20089;-76
2022/06/02 05:11:39;;;;;;;0.87;0.30;;;8.50;99.90;;;;;;5061204;28;20054;-75
2022/06/02 05:14:29;;;;;;;0.57;0.32;;;8.60;99.90;;;;;;5061064;28;20348;-76
2022/06/02 05:17:19;;;;;;;2.00;0.50;;;8.80;99.90;;;;;;5062694;28;20036;-77
2022/06/02 05:20:20;;;;;;;0.70;0.30;;;9.00;99.90;;;;;;5061710;28;20052;-77
2022/06/02 05:23:03;;;;;;;0.70;0.30;;;9.20;99.90;;;;;;5038607;28;20108;-77
2022/06/02 05:25:41;;;;;;;1.77;0.70;;;9.30;99.90;;;;;;5060775;28;20434;-76
2022/06/02 05:28:27;;;;;;;0.75;0.30;;;9.50;99.90;;;;;;5060907;28;20021;-76
2022/06/02 05:30:56;;;;;;;4.10;1.05;;;9.60;99.90;;;;;;5059988;28;20180;-76
2022/06/02 05:33:31;;;;;;;1.88;0.73;;;9.80;99.90;;;;;;5062419;28;20025;-76
2022/06/02 05:36:17;;;;;;;0.77;0.35;;;10.00;99.90;;;;;;5060447;28;20037;-77
2022/06/02 05:39:15;;;;;;;0.77;0.30;;;10.20;99.90;;;;;;5062355;28;20037;-76
2022/06/02 05:42:10;;;;;;;0.65;0.30;;;10.50;99.90;;;;;;5062206;28;20037;-76
2022/06/02 05:44:55;;;;;;;0.65;0.32;;;10.80;99.90;;;;;;5064325;28;20029;-76
2022/06/02 05:47:33;;;;;;;0.70;0.30;;;11.00;99.90;;;;;;5066154;28;20025;-76
2022/06/02 05:50:22;;;;;;;0.63;0.30;;;11.30;99.90;;;;;;5064232;28;20437;-76
2022/06/02 05:53:03;;;;;;;0.70;0.30;;;11.50;99.90;;;;;;5063160;28;20439;-76
2022/06/02 05:55:41;;;;;;;0.90;0.60;;;11.80;99.90;;;;;;5066079;28;20056;-76
2022/06/02 05:58:13;;;;;;;1.05;0.50;;;12.10;99.90;;;;;;5064623;28;20056;-76
2022/06/02 06:00:41;;;;;;;;;;;12.40;99.90;;;;;;5066030;28;20395;-77
2022/06/02 06:03:26;;;;;;;1.02;0.50;;;12.80;99.90;;;;;;5065651;28;20299;-76
2022/06/02 06:06:21;;;;;;;0.57;0.20;;;13.00;99.90;;;;;;5064009;28;20390;-76
2022/06/02 06:09:06;;;;;;;0.77;0.30;;;13.20;99.90;;;;;;5064494;28;20056;-77
2022/06/02 06:12:11;;;;;;;0.65;0.22;;;13.70;99.90;;;;;;5065447;28;20074;-76
2022/06/02 06:14:58;;;;;;;0.20;0.20;;;13.80;99.90;;;;;;5047030;28;20029;-76
2022/06/02 06:17:32;;;;;;;0.98;0.50;;;14.10;99.90;;;;;;5064184;28;20029;-76
2022/06/02 06:20:35;;;;;;;0.38;0.20;;;14.40;99.90;;;;;;5063600;28;20024;-75
2022/06/02 06:23:36;;;;;;;0.60;0.25;;;14.70;99.90;;;;;;5063694;28;20029;-75
2022/06/02 06:26:22;;;;;;;0.38;0.20;;;14.90;99.90;;;;;;5064221;28;20039;-76
2022/06/02 06:29:16;;;;;;;0.73;0.32;;;15.10;99.90;;;;;;5065010;28;20037;-75
2022/06/02 06:31:57;;;;;;;0.38;0.20;;;15.20;99.90;;;;;;5063564;28;20025;-75
2022/06/02 06:34:49;;;;;;;0.30;0.20;;;15.50;99.90;;;;;;5063990;28;20036;-75
2022/06/02 06:37:40;;;;;;;0.43;0.20;;;15.60;99.90;;;;;;5063292;28;20036;-75
2022/06/02 06:40:25;;;;;;;0.88;0.47;;;16.10;99.90;;;;;;5063047;28;20017;-76
2022/06/02 06:43:12;;;;;;;0.30;0.10;;;16.10;99.90;;;;;;5065282;28;20067;-76
2022/06/02 06:46:01;;;;;;;1.33;0.32;;;16.30;99.90;;;;;;5064404;28;20084;-76
2022/06/02 06:48:37;;;;;;;1.02;0.30;;;16.50;99.90;;;;;;5063480;28;20033;-74
2022/06/02 06:51:26;;;;;;;0.50;0.20;;;16.90;99.90;;;;;;5065126;28;20033;-75
2022/06/02 06:53:58;;;;;;;0.57;0.20;;;17.00;99.90;;;;;;5052731;28;20037;-75
2022/06/02 06:56:37;;;;;;;0.10;0.10;;;17.10;99.90;;;;;;5062813;28;20089;-74
2022/06/02 06:59:35;;;;;;;0.45;0.28;;;17.40;99.90;;;;;;5065015;28;20036;-75
2022/06/02 07:02:39;;;;;;;0.28;0.10;;;17.40;99.90;;;;;;5063104;28;20029;-75
2022/06/02 07:05:16;;;;;;;0.17;0.10;;;17.60;99.90;;;;;;5062389;28;20028;-75
2022/06/02 07:08:12;;;;;;;0.40;0.30;;;17.80;99.90;;;;;;5064991;28;20383;-75
2022/06/02 07:11:01;;;;;;;0.10;0.10;;;17.80;99.90;;;;;;5062348;28;20024;-75
2022/06/02 07:13:46;;;;;;;0.10;0.10;;;17.90;99.90;;;;;;5064076;28;20053;-75
2022/06/02 07:16:31;;;;;;;0.10;0.10;;;18.20;99.90;;;;;;5063129;28;20472;-74
2022/06/02 07:19:21;;;;;;;0.38;0.10;;;17.90;99.90;;;;;;5062476;28;20020;-75
2022/06/02 07:21:59;;;;;;;0.43;0.20;;;17.60;99.90;;;;;;5063973;28;20064;-75
2022/06/02 07:25:02;;;;;;;0.30;0.15;;;17.70;99.90;;;;;;5064045;28;20028;-74
2022/06/02 07:28:04;;;;;;;0.40;0.10;;;17.80;99.90;;;;;;5062454;28;20029;-74
2022/06/02 07:30:48;;;;;;;;;;;17.80;99.90;;;;;;5061455;28;20048;-74
2022/06/02 07:33:14;;;;;;;0.30;0.10;;;17.70;99.90;;;;;;5064180;28;20233;-74
2022/06/02 07:35:51;;;;;;;0.38;0.20;;;18.10;99.90;;;;;;5060799;28;20017;-75
2022/06/02 07:38:53;;;;;;;0.17;0.10;;;18.50;99.90;;;;;;5064240;28;20021;-74
2022/06/02 07:41:18;;;;;;;0.22;0.10;;;18.40;99.90;;;;;;5061096;28;20072;-74
2022/06/02 07:44:10;;;;;;;0.10;0.10;;;18.20;99.90;;;;;;5062913;28;20063;-74
2022/06/02 07:46:56;;;;;;;0.20;0.10;;;18.20;99.90;;;;;;5064079;28;20029;-74
2022/06/02 07:49:41;;;;;;;0.17;0.10;;;17.40;99.90;;;;;;5062274;28;20029;-74
2022/06/02 07:52:30;;;;;;;0.28;0.10;;;17.90;99.90;;;;;;5061786;28;20040;-74
2022/06/02 07:55:20;;;;;;;0.38;0.10;;;18.50;99.90;;;;;;5045926;28;20025;-73
2022/06/02 07:57:56;;;;;;;0.47;0.13;;;19.00;99.90;;;;;;5062083;28;20087;-75
2022/06/02 08:00:27;;;;;;;0.13;0.10;;;19.60;99.90;;;;;;5063540;28;20419;-74
2022/06/02 08:02:58;;;;;;;0.40;0.10;;;19.00;99.90;;;;;;5061787;28;20029;-74
2022/06/02 08:05:42;;;;;;;0.17;0.10;;;18.30;99.90;;;;;;5059771;28;20136;-73
2022/06/02 08:08:29;;;;;;;0.35;0.10;;;18.40;99.90;;;;;;5063646;28;20033;-74
2022/06/02 08:11:10;;;;;;;0.17;0.10;;;19.30;99.90;;;;;;5061418;28;20055;-73
2022/06/02 08:14:03;;;;;;;0.10;0.10;;;19.50;99.90;;;;;;5062663;28;20021;-73
2022/06/02 08:16:55;;;;;;;0.35;0.10;;;20.30;99.90;;;;;;5063650;28;20036;-73
2022/06/02 08:19:48;;;;;;;0.10;0.10;;;19.90;99.90;;;;;;5061948;28;20034;-73
2022/06/02 08:22:29;;;;;;;0.28;0.10;;;19.40;99.90;;;;;;5062221;28;20041;-73
2022/06/02 08:25:13;;;;;;;0.10;0.10;;;18.90;99.90;;;;;;5063439;28;20029;-73
2022/06/02 08:27:59;;;;;;;0.22;0.10;;;19.60;99.90;;;;;;5061255;28;20025;-73
2022/06/02 08:30:29;;;;;;;0.17;0.10;;;19.80;99.90;;;;;;5062885;28;20104;-73
2022/06/02 08:33:36;;;;;;;0.28;0.10;;;20.30;98.40;;;;;;5062802;28;20025;-73
2022/06/02 08:36:10;;;;;;;0.10;0.10;;;20.20;91.90;;;;;;5061271;28;20063;-73
2022/06/02 08:39:00;;;;;;;0.10;0.10;;;19.40;99.90;;;;;;5063001;28;20029;-73
2022/06/02 08:41:50;;;;;;;0.40;0.10;;;19.50;99.90;;;;;;5062132;28;20044;-73
2022/06/02 08:44:43;;;;;;;0.30;0.10;;;19.80;99.50;;;;;;5061126;28;20028;-73
2022/06/02 08:47:35;;;;;;;0.10;0.10;;;20.40;98.20;;;;;;5062838;28;20035;-73
2022/06/02 08:50:25;;;;;;;0.00;0.00;;;21.40;91.40;;;;;;5061271;28;20058;-73
2022/06/02 08:53:28;;;;;;;0.30;0.15;;;21.20;95.50;;;;;;5060876;28;20029;-73
2022/06/02 08:56:11;;;;;;;0.10;0.10;;;20.50;92.10;;;;;;5062538;28;20025;-73
2022/06/02 08:58:37;;;;;;;0.10;0.10;;;20.50;94.70;;;;;;5062319;28;20028;-73
2022/06/02 09:01:11;;;;;;;0.03;0.03;;;20.90;93.50;;;;;;5061034;28;20033;-73
2022/06/02 09:04:15;;;;;;;0.10;0.10;;;21.00;74.00;;;;;;5062801;28;20074;-73
2022/06/02 09:07:01;;;;;;;0.17;0.10;;;22.10;78.70;;;;;;5061177;28;20025;-73
2022/06/02 09:09:46;;;;;;;0.60;0.20;;;21.60;78.00;;;;;;5061003;28;20148;-73
2022/06/02 09:12:41;;;;;;;0.10;0.10;;;21.80;71.20;;;;;;5062626;28;20033;-73
2022/06/02 09:15:12;;;;;;;0.10;0.10;;;21.60;66.20;;;;;;5051094;28;20033;-73
2022/06/02 09:17:45;;;;;;;0.17;0.10;;;21.70;82.00;;;;;;5061862;28;20112;-73
2022/06/02 09:20:14;;;;;;;0.00;0.00;;;21.50;74.80;;;;;;5061856;28;20073;-73
2022/06/02 09:23:15;;;;;;;0.15;0.10;;;21.10;77.10;;;;;;5060842;28;20021;-73
2022/06/02 09:25:59;;;;;;;0.10;0.10;;;20.70;88.40;;;;;;5053867;28;20041;-73
2022/06/02 09:29:38;;;;;;;0.28;0.10;;;21.60;99.90;;;;;;5060219;28;20588;-73
2022/06/02 09:32:33;;;;;;;0.17;0.10;;;20.80;72.30;;;;;;5018460;28;20030;-73
2022/06/02 09:35:17;;;;;;;0.10;0.10;;;21.30;71.80;;;;;;4988000;28;20041;-73
2022/06/02 09:38:04;;;;;;;0.10;0.10;;;21.50;80.90;;;;;;5062482;28;20075;-73
2022/06/02 09:40:44;;;;;;;0.00;0.00;;;21.30;67.60;;;;;;5059999;28;20068;-73
2022/06/02 09:43:35;;;;;;;0.10;0.10;;;21.80;76.70;;;;;;5061984;28;20025;-74
2022/06/02 09:46:14;;;;;;;;;;;22.80;75.00;;;;;;5062717;28;20025;-74
2022/06/02 09:48:52;;;;;;;0.40;0.15;;;23.00;60.00;;;;;;5060443;28;19904;-74
2022/06/02 09:51:55;;;;;;;0.00;0.00;;;22.80;64.20;;;;;;5060808;28;20413;-74
2022/06/02 09:54:49;;;;;;;0.17;0.10;;;22.10;62.80;;;;;;5061845;28;20361;-74
2022/06/02 09:57:58;;;;;;;0.00;0.00;;;21.70;63.80;;;;;;5060176;28;20024;-74
2022/06/02 10:00:36;;;;;;;0.00;0.00;;;21.10;64.00;;;;;;5061842;28;20039;-74
2022/06/02 10:03:38;;;;;;;0.00;0.00;;;20.60;74.30;;;;;;5061774;28;20035;-73
2022/06/02 10:06:10;;;;;;;0.10;0.10;;;20.70;77.80;;;;;;5060128;28;20071;-73
2022/06/02 10:09:13;;;;;;;0.08;0.05;;;21.50;81.00;;;;;;5062312;28;20449;-73
2022/06/02 10:12:54;;;;;;;0.10;0.10;;;22.30;76.50;;;;;;5061325;28;20029;-73
2022/06/02 10:15:10;;;;;;;0.00;0.00;;;22.20;60.90;;;;;;5059977;28;20037;-73
2022/06/02 10:18:05;;;;;;;0.00;0.00;;;23.30;63.40;;;;;;5061503;28;20053;-74
2022/06/02 10:21:00;;;;;;;0.35;0.35;;;23.50;59.90;;;;;;5061671;28;20057;-73
2022/06/02 10:23:40;;;;;;;0.00;0.00;;;23.10;59.30;;;;;;5060234;28;20056;-74
2022/06/02 10:26:32;;;;;;;0.00;0.00;;;23.10;57.10;;;;;;5061782;28;20036;-74
2022/06/02 10:29:06;;;;;;;0.00;0.00;;;24.00;62.40;;;;;;5063996;28;20028;-74
2022/06/02 10:31:50;;;;;;;0.08;0.00;;;24.20;55.10;;;;;;5063684;28;20025;-74
2022/06/02 10:34:19;;;;;;;0.00;0.00;;;24.10;58.80;;;;;;5065459;28;20025;-74
2022/06/02 10:37:11;;;;;;;0.00;0.00;;;24.90;58.30;;;;;;5064296;28;20021;-74
2022/06/02 10:39:55;;;;;;;0.30;0.20;;;24.10;52.30;;;;;;5060741;28;20036;-74
2022/06/02 10:42:41;;;;;;;0.00;0.00;;;24.00;53.40;;;;;;5065190;28;20033;-74
2022/06/02 10:45:13;;;;;;;0.00;0.00;;;24.20;55.60;;;;;;5063548;28;20484;-73
2022/06/02 10:47:59;;;;;;;0.08;0.08;;;24.70;54.70;;;;;;5064617;28;20039;-74
2022/06/02 10:50:43;;;;;;;0.00;0.00;;;24.60;53.40;;;;;;5065345;28;20017;-74
2022/06/02 10:53:17;;;;;;;0.00;0.00;;;24.60;53.20;;;;;;5063658;28;20040;-74
2022/06/02 10:55:51;;;;;;;0.00;0.00;;;24.70;55.70;;;;;;5067012;28;20428;-74
2022/06/02 10:58:23;;;;;;;0.20;0.20;;;23.30;56.30;;;;;;5066025;28;20032;-74
2022/06/02 11:01:13;;;;;;;0.00;0.00;;;22.70;55.10;;;;;;5065559;28;20033;-74
2022/06/02 11:03:51;;;;;;;0.00;0.00;;;22.70;59.00;;;;;;5065597;28;20451;-74
2022/06/02 11:06:48;;;;;;;0.00;0.00;;;23.10;60.20;;;;;;5063037;28;20029;-74
2022/06/02 11:09:44;;;;;;;0.08;0.00;;;23.50;59.00;;;;;;5062519;28;20029;-72
2022/06/02 11:12:28;;;;;;;0.00;0.00;;;23.60;56.10;;;;;;5064821;28;20025;-73
2022/06/02 11:15:05;;;;;;;0.00;0.00;;;23.10;54.40;;;;;;5062960;28;20029;-73
2022/06/02 11:17:36;;;;;;;0.10;0.10;;;22.80;54.00;;;;;;5064488;28;20029;-72
2022/06/02 11:20:16;;;;;;;0.08;0.08;;;24.00;52.50;;;;;;5064130;28;20047;-72
2022/06/02 11:22:57;;;;;;;0.03;0.03;;;24.40;53.10;;;;;;5062824;28;20041;-72
2022/06/02 11:25:41;;;;;;;0.20;0.20;;;23.70;53.50;;;;;;5064604;28;20029;-73
2022/06/02 11:29:00;;;;;;;0.10;0.10;;;23.10;55.50;;;;;;5063126;28;20568;-73
2022/06/02 11:31:53;;;;;;;0.43;0.20;;;23.50;55.30;;;;;;5040148;28;20044;-72
2022/06/02 11:34:56;;;;;;;0.00;0.00;;;24.10;56.90;;;;;;5041931;28;20096;-74
2022/06/02 11:37:35;;;;;;;0.10;0.10;;;24.60;56.60;;;;;;5064150;28;20028;-73
2022/06/02 11:40:23;;;;;;;0.00;0.00;;;24.20;55.60;;;;;;5061986;28;20385;-73
2022/06/02 11:42:55;;;;;;;0.00;0.00;;;23.80;54.40;;;;;;5062768;28;20604;-72
2022/06/02 11:45:37;;;;;;;0.00;0.00;;;24.10;54.90;;;;;;5063152;28;20079;-72
2022/06/02 11:48:11;;;;;;;0.05;0.05;;;24.80;53.20;;;;;;5062360;28;20040;-72
2022/06/02 11:51:01;;;;;;;0.00;0.00;;;25.20;55.10;;;;;;5062301;28;20029;-73
2022/06/02 11:53:44;;;;;;;0.00;0.00;;;24.60;54.10;;;;;;5062453;28;20052;-72
2022/06/02 11:56:40;;;;;;;0.00;0.00;;;24.50;51.70;;;;;;5063410;28;20025;-72
2022/06/02 11:59:05;;;;;;;0.00;0.00;;;24.30;52.30;;;;;;5063919;28;20033;-72
2022/06/02 12:01:54;;;;;;;0.10;0.10;;;23.60;52.30;;;;;;5061673;28;20059;-72
2022/06/02 12:04:45;;;;;;;0.00;0.00;;;23.20;54.80;;;;;;5063523;28;20025;-71
2022/06/02 12:07:16;;;;;;;0.00;0.00;;;23.50;56.60;;;;;;5063218;28;20075;-72
2022/06/02 12:09:51;;;;;;;0.00;0.00;;;24.90;57.80;;;;;;5061568;28;20048;-72
2022/06/02 12:12:32;;;;;;;0.00;0.00;;;24.70;52.30;;;;;;5063514;28;20078;-72
2022/06/02 12:15:21;;;;;;;0.10;0.10;;;24.40;53.40;;;;;;5060272;28;20028;-72
2022/06/02 12:18:11;;;;;;;0.00;0.00;;;25.00;52.60;;;;;;5062593;28;20031;-73
2022/06/02 12:21:06;;;;;;;0.00;0.00;;;25.70;49.70;;;;;;5063237;28;20411;-73
2022/06/02 12:24:01;;;;;;;0.00;0.00;;;25.60;51.70;;;;;;5061796;28;20453;-72
2022/06/02 12:26:26;;;;;;;0.00;0.00;;;25.60;52.70;;;;;;5061288;28;20045;-71
2022/06/02 12:29:16;;;;;;;0.10;0.10;;;26.00;51.80;;;;;;5063303;28;20031;-71
2022/06/02 12:32:04;;;;;;;0.00;0.00;;;26.70;50.90;;;;;;5061292;28;20013;-71
2022/06/02 12:34:47;;;;;;;0.08;0.08;;;26.00;46.10;;;;;;5061641;28;20029;-71
2022/06/02 12:37:44;;;;;;;0.00;0.00;;;26.20;46.30;;;;;;5062970;28;20029;-71
2022/06/02 12:41:08;;;;;;;0.00;0.00;;;25.90;45.90;;;;;;5060745;28;20076;-71
2022/06/02 12:43:56;;;;;;;0.00;0.00;;;24.90;47.20;;;;;;5031045;28;20059;-71
2022/06/02 12:46:41;;;;;;;0.00;0.00;;;25.40;50.50;;;;;;5062988;28;20025;-71
2022/06/02 12:49:38;;;;;;;0.10;0.10;;;25.80;53.20;;;;;;5061308;28;20036;-71
2022/06/02 12:52:38;;;;;;;0.00;0.00;;;25.70;49.70;;;;;;5050081;28;20049;-71
2022/06/02 12:55:03;;;;;;;0.00;0.00;;;26.00;50.10;;;;;;5062854;28;20036;-71
2022/06/02 12:57:40;;;;;;;0.00;0.00;;;26.50;48.50;;;;;;5060856;28;20354;-70
2022/06/02 13:00:24;;;;;;;0.00;0.00;;;26.00;46.50;;;;;;5061292;28;20039;-71
2022/06/02 13:03:27;;;;;;;0.10;0.10;;;26.40;47.90;;;;;;5062461;28;20048;-70
2022/06/02 13:06:31;;;;;;;0.00;0.00;;;26.10;49.20;;;;;;5060611;28;20037;-71
2022/06/02 13:09:28;;;;;;;0.10;0.10;;;25.90;50.10;;;;;;5062273;28;20037;-71
2022/06/02 13:12:02;;;;;;;0.00;0.00;;;25.90;49.60;;;;;;5057896;28;20044;-71
2022/06/02 13:15:11;;;;;;;0.00;0.00;;;26.50;49.70;;;;;;5060698;28;20017;-70
2022/06/02 13:18:11;;;;;;;0.00;0.00;;;25.50;48.80;;;;;;5051305;28;20045;-71
2022/06/02 13:21:06;;;;;;;0.03;0.03;;;24.90;50.10;;;;;;5060959;28;20065;-71
2022/06/02 13:24:10;;;;;;;0.00;0.00;;;25.10;52.20;;;;;;5060829;28;20021;-72
2022/06/02 13:27:03;;;;;;;0.00;0.00;;;25.80;52.30;;;;;;5061204;28;20025;-72
2022/06/02 13:30:09;;;;;;;0.00;0.00;;;25.50;50.20;;;;;;5062528;28;20051;-72
2022/06/02 13:32:40;;;;;;;0.03;0.03;;;25.30;49.60;;;;;;5050409;28;20036;-72
2022/06/02 13:35:25;;;;;;;0.10;0.10;;;25.50;48.90;;;;;;5059609;28;20078;-72
2022/06/02 13:38:05;;;;;;;0.00;0.00;;;25.30;48.80;;;;;;5062358;28;20093;-72
2022/06/02 13:40:49;;;;;;;0.30;0.20;;;25.60;48.20;;;;;;5059997;28;20025;-73
2022/06/02 13:44:00;;;;;;;0.00;0.00;;;25.50;48.40;;;;;;5061943;28;20539;-73
2022/06/02 13:46:31;;;;;;;0.00;0.00;;;25.70;47.60;;;;;;5061319;28;20033;-73
2022/06/02 13:49:16;;;;;;;0.00;0.00;;;25.30;46.10;;;;;;5060421;28;20028;-72
2022/06/02 13:52:09;;;;;;;0.00;0.00;;;25.70;47.80;;;;;;5062130;28;20126;-73
2022/06/02 13:57:50;;;;;;;0.17;0.00;;;24.90;46.00;;;;;;5060385;28;20043;-73
2022/06/02 14:00:30;;;;;;;0.03;0.03;;;25.10;50.90;;;;;;5061940;28;20032;-72
2022/06/02 14:03:14;;;;;;;;;;;24.70;50.00;;;;;;5062730;28;20052;-72
2022/06/02 14:06:05;;;;;;;0.10;0.10;;;24.90;52.00;;;;;;5063982;28;19923;-72
2022/06/02 14:08:55;;;;;;;0.03;0.03;;;24.30;52.10;;;;;;5066069;28;20033;-73
2022/06/02 14:11:32;;;;;;;0.00;0.00;;;24.10;52.40;;;;;;5065259;28;20036;-72
2022/06/02 14:14:22;;;;;;;0.00;0.00;;;24.00;51.80;;;;;;5064136;28;20032;-73
2022/06/02 14:17:00;;;;;;;0.00;0.00;;;24.30;50.80;;;;;;5065920;28;20021;-72
2022/06/02 14:19:50;;;;;;;0.00;0.00;;;24.50;52.60;;;;;;5064502;28;20120;-72
2022/06/02 14:22:24;;;;;;;0.00;0.00;;;24.40;50.70;;;;;;5064206;28;20048;-72
2022/06/02 14:25:12;;;;;;;0.10;0.10;;;24.40;51.20;;;;;;5065735;28;20071;-72
2022/06/02 14:27:56;;;;;;;0.00;0.00;;;24.60;53.10;;;;;;5063811;28;20031;-72
2022/06/02 14:30:39;;;;;;;0.00;0.00;;;23.70;49.20;;;;;;5065189;28;20092;-72
2022/06/02 14:33:07;;;;;;;0.03;0.00;;;24.20;53.40;;;;;;5065533;28;20060;-72
2022/06/02 14:35:49;;;;;;;0.10;0.05;;;24.60;54.20;;;;;;5062182;28;20039;-72
2022/06/02 14:38:30;;;;;;;0.20;0.10;;;24.40;50.40;;;;;;5065647;28;20388;-72